sensor_id;sensor_type;location;lat;lon;timestamp;pressure;altitude;pressure_sealevel;temperature;humidity
53011;BME280;42803;55.762;38.084;2024-03-17T00:01:59;99848.16;;;-3.87;100.00
53011;BME280;42803;55.762;38.084;2024-03-17T00:04:26;99845.41;;;-3.89;100.00
53011;BME280;42803;55.762;38.084;2024-03-17T00:06:54;99847.53;;;-3.92;100.00
53011;BME280;42803;55.762;38.084;2024-03-17T00:09:21;99842.56;;;-3.85;100.00
53011;BME280;42803;55.762;38.084;2024-03-17T00:11:50;99831.31;;;-3.93;100.00
53011;BME280;42803;55.762;38.084;2024-03-17T00:14:18;99843.41;;;-3.97;100.00
53011;BME280;42803;55.762;38.084;2024-03-17T00:16:45;99843.69;;;-4.01;100.00
53011;BME280;42803;55.762;38.084;2024-03-17T00:19:13;99843.28;;;-4.04;100.00
53011;BME280;42803;55.762;38.084;2024-03-17T00:21:40;99839.59;;;-4.06;100.00
53011;BME280;42803;55.762;38.084;2024-03-17T00:24:07;99838.19;;;-4.04;100.00
53011;BME280;42803;55.762;38.084;2024-03-17T00:26:35;99835.66;;;-4.04;100.00
53011;BME280;42803;55.762;38.084;2024-03-17T00:29:03;99831.03;;;-4.07;100.00
53011;BME280;42803;55.762;38.084;2024-03-17T00:31:31;99835.34;;;-4.00;100.00
53011;BME280;42803;55.762;38.084;2024-03-17T00:33:59;99833.63;;;-3.94;100.00
53011;BME280;42803;55.762;38.084;2024-03-17T00:36:25;99835.75;;;-3.97;100.00
53011;BME280;42803;55.762;38.084;2024-03-17T00:38:53;99828.97;;;-3.91;100.00
53011;BME280;42803;55.762;38.084;2024-03-17T00:41:20;99828.03;;;-3.92;100.00
53011;BME280;42803;55.762;38.084;2024-03-17T00:43:51;99824.34;;;-3.94;100.00
53011;BME280;42803;55.762;38.084;2024-03-17T00:46:21;99827.19;;;-3.98;100.00
53011;BME280;42803;55.762;38.084;2024-03-17T00:48:50;99821.19;;;-3.98;100.00
53011;BME280;42803;55.762;38.084;2024-03-17T00:51:17;99821.41;;;-3.97;100.00
53011;BME280;42803;55.762;38.084;2024-03-17T00:53:46;99829.13;;;-4.02;100.00
53011;BME280;42803;55.762;38.084;2024-03-17T00:56:13;99822.81;;;-3.99;100.00
53011;BME280;42803;55.762;38.084;2024-03-17T00:58:41;99810.97;;;-3.98;100.00
53011;BME280;42803;55.762;38.084;2024-03-17T01:01:08;99812.41;;;-4.00;100.00
53011;BME280;42803;55.762;38.084;2024-03-17T01:03:35;99820.16;;;-3.93;100.00
53011;BME280;42803;55.762;38.084;2024-03-17T01:06:05;99813.34;;;-4.00;100.00
53011;BME280;42803;55.762;38.084;2024-03-17T01:08:33;99807.88;;;-4.08;100.00
53011;BME280;42803;55.762;38.084;2024-03-17T01:11:00;99811.84;;;-4.10;100.00
53011;BME280;42803;55.762;38.084;2024-03-17T01:13:29;99807.59;;;-4.04;100.00
53011;BME280;42803;55.762;38.084;2024-03-17T01:15:56;99808.81;;;-4.08;100.00
53011;BME280;42803;55.762;38.084;2024-03-17T01:18:24;99802.38;;;-4.11;100.00
53011;BME280;42803;55.762;38.084;2024-03-17T01:20:51;99798.09;;;-4.05;100.00
53011;BME280;42803;55.762;38.084;2024-03-17T01:23:19;99808.59;;;-4.09;100.00
53011;BME280;42803;55.762;38.084;2024-03-17T01:25:48;99802.84;;;-4.14;100.00
53011;BME280;42803;55.762;38.084;2024-03-17T01:28:16;99804.34;;;-4.22;100.00
53011;BME280;42803;55.762;38.084;2024-03-17T01:30:43;99802.53;;;-4.23;100.00
53011;BME280;42803;55.762;38.084;2024-03-17T01:33:11;99803.06;;;-4.12;100.00
53011;BME280;42803;55.762;38.084;2024-03-17T01:35:38;99802.28;;;-4.06;100.00
53011;BME280;42803;55.762;38.084;2024-03-17T01:38:06;99793.38;;;-4.15;100.00
53011;BME280;42803;55.762;38.084;2024-03-17T01:40:33;99796.41;;;-4.18;100.00
53011;BME280;42803;55.762;38.084;2024-03-17T01:43:01;99786.31;;;-4.23;100.00
53011;BME280;42803;55.762;38.084;2024-03-17T01:45:32;99791.91;;;-4.26;100.00
53011;BME280;42803;55.762;38.084;2024-03-17T01:48:01;99799.53;;;-4.26;100.00
53011;BME280;42803;55.762;38.084;2024-03-17T01:50:37;99795.84;;;-4.28;100.00
53011;BME280;42803;55.762;38.084;2024-03-17T01:53:06;99794.72;;;-4.30;100.00
53011;BME280;42803;55.762;38.084;2024-03-17T01:55:37;99791.91;;;-4.26;100.00
53011;BME280;42803;55.762;38.084;2024-03-17T01:58:05;99788.50;;;-4.32;100.00
53011;BME280;42803;55.762;38.084;2024-03-17T02:00:36;99780.03;;;-4.38;100.00
53011;BME280;42803;55.762;38.084;2024-03-17T02:03:05;99777.66;;;-4.36;100.00
53011;BME280;42803;55.762;38.084;2024-03-17T02:05:35;99778.38;;;-4.37;100.00
53011;BME280;42803;55.762;38.084;2024-03-17T02:08:07;99782.75;;;-4.36;100.00
53011;BME280;42803;55.762;38.084;2024-03-17T02:10:35;99776.31;;;-4.40;100.00
53011;BME280;42803;55.762;38.084;2024-03-17T02:13:02;99777.31;;;-4.45;100.00
53011;BME280;42803;55.762;38.084;2024-03-17T02:15:31;99771.94;;;-4.41;100.00
53011;BME280;42803;55.762;38.084;2024-03-17T02:18:18;99767.72;;;-4.35;100.00
53011;BME280;42803;55.762;38.084;2024-03-17T02:20:46;99771.22;;;-4.40;100.00
53011;BME280;42803;55.762;38.084;2024-03-17T02:23:24;99764.72;;;-4.38;100.00
53011;BME280;42803;55.762;38.084;2024-03-17T02:25:53;99765.69;;;-4.43;100.00
53011;BME280;42803;55.762;38.084;2024-03-17T02:28:20;99760.22;;;-4.46;100.00
53011;BME280;42803;55.762;38.084;2024-03-17T02:30:48;99761.31;;;-4.44;100.00
53011;BME280;42803;55.762;38.084;2024-03-17T02:33:15;99763.72;;;-4.33;100.00
53011;BME280;42803;55.762;38.084;2024-03-17T02:35:43;99757.09;;;-4.38;100.00
53011;BME280;42803;55.762;38.084;2024-03-17T02:38:10;99756.66;;;-4.41;100.00
53011;BME280;42803;55.762;38.084;2024-03-17T02:40:58;99756.22;;;-4.44;100.00
53011;BME280;42803;55.762;38.084;2024-03-17T02:43:25;99750.41;;;-4.43;100.00
53011;BME280;42803;55.762;38.084;2024-03-17T02:45:53;99756.72;;;-4.47;100.00
53011;BME280;42803;55.762;38.084;2024-03-17T02:48:20;99752.78;;;-4.45;100.00
53011;BME280;42803;55.762;38.084;2024-03-17T02:50:49;99747.19;;;-4.42;100.00
53011;BME280;42803;55.762;38.084;2024-03-17T02:53:16;99750.03;;;-4.46;100.00
53011;BME280;42803;55.762;38.084;2024-03-17T02:55:44;99739.69;;;-4.53;100.00
53011;BME280;42803;55.762;38.084;2024-03-17T02:58:12;99738.34;;;-4.57;100.00
53011;BME280;42803;55.762;38.084;2024-03-17T03:00:40;99739.53;;;-4.60;100.00
53011;BME280;42803;55.762;38.084;2024-03-17T03:03:08;99738.88;;;-4.47;100.00
53011;BME280;42803;55.762;38.084;2024-03-17T03:05:36;99736.41;;;-4.34;100.00
53011;BME280;42803;55.762;38.084;2024-03-17T03:08:04;99738.97;;;-4.34;100.00
53011;BME280;42803;55.762;38.084;2024-03-17T03:10:32;99740.66;;;-4.40;100.00
53011;BME280;42803;55.762;38.084;2024-03-17T03:13:02;99750.41;;;-4.43;100.00
53011;BME280;42803;55.762;38.084;2024-03-17T03:15:33;99749.00;;;-4.41;100.00
53011;BME280;42803;55.762;38.084;2024-03-17T03:18:01;99746.28;;;-4.43;100.00
53011;BME280;42803;55.762;38.084;2024-03-17T03:20:29;99749.00;;;-4.41;100.00
53011;BME280;42803;55.762;38.084;2024-03-17T03:22:57;99741.66;;;-4.45;100.00
53011;BME280;42803;55.762;38.084;2024-03-17T03:25:24;99735.50;;;-4.53;100.00
53011;BME280;42803;55.762;38.084;2024-03-17T03:27:53;99734.06;;;-4.51;100.00
53011;BME280;42803;55.762;38.084;2024-03-17T03:30:24;99738.53;;;-4.55;100.00
53011;BME280;42803;55.762;38.084;2024-03-17T03:32:52;99742.09;;;-4.60;100.00
53011;BME280;42803;55.762;38.084;2024-03-17T03:35:19;99737.28;;;-4.46;100.00
53011;BME280;42803;55.762;38.084;2024-03-17T03:37:47;99735.22;;;-4.49;100.00
53011;BME280;42803;55.762;38.084;2024-03-17T03:40:15;99724.53;;;-4.46;100.00
53011;BME280;42803;55.762;38.084;2024-03-17T03:42:45;99726.22;;;-4.34;100.00
53011;BME280;42803;55.762;38.084;2024-03-17T03:45:13;99721.13;;;-4.34;100.00
53011;BME280;42803;55.762;38.084;2024-03-17T03:47:42;99725.38;;;-4.40;100.00
53011;BME280;42803;55.762;38.084;2024-03-17T03:50:10;99730.28;;;-4.42;100.00
53011;BME280;42803;55.762;38.084;2024-03-17T03:52:38;99719.97;;;-4.36;100.00
53011;BME280;42803;55.762;38.084;2024-03-17T03:55:09;99720.34;;;-4.27;100.00
53011;BME280;42803;55.762;38.084;2024-03-17T03:57:42;99720.53;;;-4.26;100.00
53011;BME280;42803;55.762;38.084;2024-03-17T04:00:13;99719.09;;;-4.24;100.00
53011;BME280;42803;55.762;38.084;2024-03-17T04:02:42;99719.97;;;-4.18;100.00
53011;BME280;42803;55.762;38.084;2024-03-17T04:05:10;99716.09;;;-4.08;100.00
53011;BME280;42803;55.762;38.084;2024-03-17T04:07:38;99709.00;;;-3.98;100.00
53011;BME280;42803;55.762;38.084;2024-03-17T04:10:06;99708.69;;;-3.94;100.00
53011;BME280;42803;55.762;38.084;2024-03-17T04:12:35;99708.81;;;-3.87;100.00
53011;BME280;42803;55.762;38.084;2024-03-17T04:15:03;99699.34;;;-3.75;100.00
53011;BME280;42803;55.762;38.084;2024-03-17T04:17:34;99706.63;;;-3.65;100.00
53011;BME280;42803;55.762;38.084;2024-03-17T04:20:02;99698.69;;;-3.61;100.00
53011;BME280;42803;55.762;38.084;2024-03-17T04:22:31;99698.97;;;-3.53;100.00
53011;BME280;42803;55.762;38.084;2024-03-17T04:24:59;99709.47;;;-3.44;100.00
53011;BME280;42803;55.762;38.084;2024-03-17T04:27:27;99700.94;;;-3.32;100.00
53011;BME280;42803;55.762;38.084;2024-03-17T04:29:56;99710.53;;;-3.24;100.00
53011;BME280;42803;55.762;38.084;2024-03-17T04:32:25;99710.31;;;-3.12;100.00
53011;BME280;42803;55.762;38.084;2024-03-17T04:34:53;99710.38;;;-3.05;100.00
53011;BME280;42803;55.762;38.084;2024-03-17T04:37:21;99700.91;;;-2.93;100.00
53011;BME280;42803;55.762;38.084;2024-03-17T04:39:51;99701.78;;;-2.80;100.00
53011;BME280;42803;55.762;38.084;2024-03-17T04:42:18;99705.66;;;-2.77;100.00
53011;BME280;42803;55.762;38.084;2024-03-17T04:44:46;99702.38;;;-2.76;100.00
53011;BME280;42803;55.762;38.084;2024-03-17T04:47:14;99705.00;;;-2.68;100.00
53011;BME280;42803;55.762;38.084;2024-03-17T04:49:44;99694.56;;;-2.57;100.00
53011;BME280;42803;55.762;38.084;2024-03-17T04:52:12;99701.56;;;-2.49;100.00
53011;BME280;42803;55.762;38.084;2024-03-17T04:54:41;99698.38;;;-2.41;100.00
53011;BME280;42803;55.762;38.084;2024-03-17T04:57:10;99704.38;;;-2.28;100.00
53011;BME280;42803;55.762;38.084;2024-03-17T04:59:38;99703.31;;;-2.23;100.00
53011;BME280;42803;55.762;38.084;2024-03-17T05:02:06;99711.56;;;-2.18;100.00
53011;BME280;42803;55.762;38.084;2024-03-17T05:04:34;99714.41;;;-2.09;100.00
53011;BME280;42803;55.762;38.084;2024-03-17T05:07:01;99707.91;;;-2.00;100.00
53011;BME280;42803;55.762;38.084;2024-03-17T05:09:29;99711.44;;;-1.92;100.00
53011;BME280;42803;55.762;38.084;2024-03-17T05:11:57;99711.38;;;-1.80;100.00
53011;BME280;42803;55.762;38.084;2024-03-17T05:14:25;99713.28;;;-1.72;100.00
53011;BME280;42803;55.762;38.084;2024-03-17T05:16:53;99710.06;;;-1.63;100.00
53011;BME280;42803;55.762;38.084;2024-03-17T05:19:21;99718.16;;;-1.53;100.00
53011;BME280;42803;55.762;38.084;2024-03-17T05:21:49;99714.69;;;-1.54;100.00
53011;BME280;42803;55.762;38.084;2024-03-17T05:24:17;99710.59;;;-1.39;100.00
53011;BME280;42803;55.762;38.084;2024-03-17T05:26:45;99715.75;;;-1.32;100.00
53011;BME280;42803;55.762;38.084;2024-03-17T05:29:13;99715.84;;;-1.17;100.00
53011;BME280;42803;55.762;38.084;2024-03-17T05:31:41;99708.00;;;-1.12;100.00
53011;BME280;42803;55.762;38.084;2024-03-17T05:34:10;99711.69;;;-1.10;100.00
53011;BME280;42803;55.762;38.084;2024-03-17T05:36:38;99705.88;;;-1.02;99.41
53011;BME280;42803;55.762;38.084;2024-03-17T05:39:06;99715.03;;;-0.96;99.06
53011;BME280;42803;55.762;38.084;2024-03-17T05:41:33;99716.72;;;-0.90;98.43
53011;BME280;42803;55.762;38.084;2024-03-17T05:44:01;99705.38;;;-0.85;97.90
53011;BME280;42803;55.762;38.084;2024-03-17T05:46:30;99712.75;;;-0.74;97.30
53011;BME280;42803;55.762;38.084;2024-03-17T05:48:58;99709.88;;;-0.62;96.35
53011;BME280;42803;55.762;38.084;2024-03-17T05:51:25;99709.75;;;-0.42;95.68
53011;BME280;42803;55.762;38.084;2024-03-17T05:53:54;99701.19;;;-0.29;94.74
53011;BME280;42803;55.762;38.084;2024-03-17T05:56:25;99700.66;;;-0.19;93.82
53011;BME280;42803;55.762;38.084;2024-03-17T05:58:52;99703.03;;;-0.13;92.81
53011;BME280;42803;55.762;38.084;2024-03-17T06:01:20;99705.25;;;-0.02;92.45
53011;BME280;42803;55.762;38.084;2024-03-17T06:03:49;99701.59;;;0.03;91.86
53011;BME280;42803;55.762;38.084;2024-03-17T06:06:17;99703.09;;;0.15;91.62
53011;BME280;42803;55.762;38.084;2024-03-17T06:08:45;99693.38;;;0.20;90.97
53011;BME280;42803;55.762;38.084;2024-03-17T06:11:13;99699.78;;;0.31;89.93
53011;BME280;42803;55.762;38.084;2024-03-17T06:13:42;99689.50;;;0.38;89.81
53011;BME280;42803;55.762;38.084;2024-03-17T06:16:10;99697.03;;;0.36;89.82
53011;BME280;42803;55.762;38.084;2024-03-17T06:18:38;99697.94;;;0.44;89.37
53011;BME280;42803;55.762;38.084;2024-03-17T06:21:06;99698.63;;;0.57;88.88
53011;BME280;42803;55.762;38.084;2024-03-17T06:23:36;99697.53;;;0.69;88.28
53011;BME280;42803;55.762;38.084;2024-03-17T06:26:04;99684.66;;;0.84;87.27
53011;BME280;42803;55.762;38.084;2024-03-17T06:28:32;99691.75;;;1.08;87.07
53011;BME280;42803;55.762;38.084;2024-03-17T06:31:00;99679.94;;;1.24;86.18
53011;BME280;42803;55.762;38.084;2024-03-17T06:33:34;99684.63;;;1.42;85.22
53011;BME280;42803;55.762;38.084;2024-03-17T06:36:03;99689.16;;;1.52;84.35
53011;BME280;42803;55.762;38.084;2024-03-17T06:38:32;99685.13;;;1.54;84.62
53011;BME280;42803;55.762;38.084;2024-03-17T06:41:01;99681.03;;;1.56;83.18
53011;BME280;42803;55.762;38.084;2024-03-17T06:43:29;99685.94;;;1.69;83.48
53011;BME280;42803;55.762;38.084;2024-03-17T06:46:03;99681.09;;;1.79;82.92
53011;BME280;42803;55.762;38.084;2024-03-17T06:48:50;99688.22;;;1.89;82.88
53011;BME280;42803;55.762;38.084;2024-03-17T06:51:19;99689.44;;;2.00;82.28
53011;BME280;42803;55.762;38.084;2024-03-17T06:53:53;99688.78;;;2.09;81.76
53011;BME280;42803;55.762;38.084;2024-03-17T06:56:36;99688.50;;;2.45;80.95
53011;BME280;42803;55.762;38.084;2024-03-17T06:59:04;99686.97;;;2.86;79.92
53011;BME280;42803;55.762;38.084;2024-03-17T07:01:32;99678.94;;;3.14;78.26
53011;BME280;42803;55.762;38.084;2024-03-17T07:04:00;99681.16;;;3.43;77.48
53011;BME280;42803;55.762;38.084;2024-03-17T07:06:28;99675.66;;;3.56;76.32
53011;BME280;42803;55.762;38.084;2024-03-17T07:08:57;99675.56;;;3.63;75.70
53011;BME280;42803;55.762;38.084;2024-03-17T07:11:25;99677.09;;;3.70;75.54
53011;BME280;42803;55.762;38.084;2024-03-17T07:13:53;99674.22;;;3.91;75.31
53011;BME280;42803;55.762;38.084;2024-03-17T07:16:20;99671.13;;;3.78;74.54
53011;BME280;42803;55.762;38.084;2024-03-17T07:18:52;99672.56;;;3.91;76.33
53011;BME280;42803;55.762;38.084;2024-03-17T07:21:21;99671.06;;;4.27;74.99
53011;BME280;42803;55.762;38.084;2024-03-17T07:23:50;99666.00;;;4.20;73.49
53011;BME280;42803;55.762;38.084;2024-03-17T07:26:18;99665.78;;;4.34;73.03
53011;BME280;42803;55.762;38.084;2024-03-17T07:28:46;99667.94;;;4.38;73.38
53011;BME280;42803;55.762;38.084;2024-03-17T07:31:14;99663.53;;;4.37;73.00
53011;BME280;42803;55.762;38.084;2024-03-17T07:33:42;99660.84;;;4.53;72.75
53011;BME280;42803;55.762;38.084;2024-03-17T07:36:10;99657.56;;;4.80;71.47
53011;BME280;42803;55.762;38.084;2024-03-17T07:38:38;99659.91;;;4.94;70.71
53011;BME280;42803;55.762;38.084;2024-03-17T07:41:10;99663.81;;;4.73;70.63
53011;BME280;42803;55.762;38.084;2024-03-17T07:43:38;99658.53;;;5.06;70.82
53011;BME280;42803;55.762;38.084;2024-03-17T07:46:09;99660.53;;;5.52;69.24
53011;BME280;42803;55.762;38.084;2024-03-17T07:48:43;99656.72;;;5.49;68.66
53011;BME280;42803;55.762;38.084;2024-03-17T07:51:13;99652.75;;;5.70;69.25
53011;BME280;42803;55.762;38.084;2024-03-17T07:53:41;99652.31;;;5.65;68.98
53011;BME280;42803;55.762;38.084;2024-03-17T07:56:12;99656.22;;;5.87;68.54
53011;BME280;42803;55.762;38.084;2024-03-17T07:58:44;99645.09;;;6.15;68.28
53011;BME280;42803;55.762;38.084;2024-03-17T08:01:17;99648.69;;;6.34;66.66
53011;BME280;42803;55.762;38.084;2024-03-17T08:03:49;99647.78;;;6.25;66.49
53011;BME280;42803;55.762;38.084;2024-03-17T08:12:06;99641.78;;;6.71;66.01
53011;BME280;42803;55.762;38.084;2024-03-17T08:14:38;99639.47;;;6.74;65.48
53011;BME280;42803;55.762;38.084;2024-03-17T08:17:14;99634.75;;;6.70;65.42
53011;BME280;42803;55.762;38.084;2024-03-17T08:19:43;99626.22;;;6.71;65.18
53011;BME280;42803;55.762;38.084;2024-03-17T08:22:14;99627.16;;;6.63;64.58
53011;BME280;42803;55.762;38.084;2024-03-17T08:24:42;99628.91;;;6.81;64.98
53011;BME280;42803;55.762;38.084;2024-03-17T08:27:10;99625.44;;;6.99;64.66
53011;BME280;42803;55.762;38.084;2024-03-17T08:29:44;99634.16;;;7.67;63.01
53011;BME280;42803;55.762;38.084;2024-03-17T08:32:25;99629.47;;;7.63;61.61
53011;BME280;42803;55.762;38.084;2024-03-17T08:35:01;99623.91;;;7.97;61.13
53011;BME280;42803;55.762;38.084;2024-03-17T08:37:30;99615.25;;;8.36;60.36
53011;BME280;42803;55.762;38.084;2024-03-17T08:39:58;99623.28;;;8.78;59.41
53011;BME280;42803;55.762;38.084;2024-03-17T08:42:26;99620.00;;;8.71;59.40
53011;BME280;42803;55.762;38.084;2024-03-17T08:44:54;99622.59;;;8.61;60.10
53011;BME280;42803;55.762;38.084;2024-03-17T08:47:22;99621.13;;;8.54;58.91
53011;BME280;42803;55.762;38.084;2024-03-17T08:49:53;99621.25;;;8.45;59.53
53011;BME280;42803;55.762;38.084;2024-03-17T08:52:20;99612.06;;;8.69;58.76
53011;BME280;42803;55.762;38.084;2024-03-17T08:54:49;99610.13;;;8.87;58.36
53011;BME280;42803;55.762;38.084;2024-03-17T08:57:18;99610.91;;;8.86;57.96
53011;BME280;42803;55.762;38.084;2024-03-17T08:59:48;99612.72;;;9.08;57.80
53011;BME280;42803;55.762;38.084;2024-03-17T09:02:19;99612.09;;;8.90;57.39
53011;BME280;42803;55.762;38.084;2024-03-17T09:04:47;99613.22;;;8.73;57.73
53011;BME280;42803;55.762;38.084;2024-03-17T09:07:15;99614.28;;;8.65;57.81
53011;BME280;42803;55.762;38.084;2024-03-17T09:09:43;99611.97;;;8.78;58.08
53011;BME280;42803;55.762;38.084;2024-03-17T09:12:11;99608.16;;;8.85;57.34
53011;BME280;42803;55.762;38.084;2024-03-17T09:14:39;99615.97;;;8.74;57.41
53011;BME280;42803;55.762;38.084;2024-03-17T09:17:07;99615.94;;;8.54;57.69
53011;BME280;42803;55.762;38.084;2024-03-17T09:19:35;99611.75;;;8.46;58.01
53011;BME280;42803;55.762;38.084;2024-03-17T09:22:03;99609.44;;;8.20;58.78
53011;BME280;42803;55.762;38.084;2024-03-17T09:24:31;99606.72;;;8.18;58.85
53011;BME280;42803;55.762;38.084;2024-03-17T09:26:59;99597.34;;;8.20;58.54
53011;BME280;42803;55.762;38.084;2024-03-17T09:29:27;99606.59;;;8.17;58.88
53011;BME280;42803;55.762;38.084;2024-03-17T09:31:55;99604.00;;;8.27;58.91
53011;BME280;42803;55.762;38.084;2024-03-17T09:34:23;99605.59;;;8.25;58.60
53011;BME280;42803;55.762;38.084;2024-03-17T09:36:51;99607.91;;;8.22;59.65
53011;BME280;42803;55.762;38.084;2024-03-17T09:39:19;99607.94;;;8.32;58.70
53011;BME280;42803;55.762;38.084;2024-03-17T09:41:46;99601.16;;;8.34;58.23
53011;BME280;42803;55.762;38.084;2024-03-17T09:44:14;99606.56;;;8.46;57.76
53011;BME280;42803;55.762;38.084;2024-03-17T09:47:02;99598.13;;;8.69;57.79
53011;BME280;42803;55.762;38.084;2024-03-17T09:49:30;99602.31;;;9.18;56.80
53011;BME280;42803;55.762;38.084;2024-03-17T09:51:58;99602.88;;;9.46;56.08
53011;BME280;42803;55.762;38.084;2024-03-17T09:54:26;99595.75;;;9.33;55.36
53011;BME280;42803;55.762;38.084;2024-03-17T09:56:56;99599.69;;;9.28;56.15
53011;BME280;42803;55.762;38.084;2024-03-17T09:59:24;99602.78;;;9.44;56.07
53011;BME280;42803;55.762;38.084;2024-03-17T10:01:52;99594.44;;;9.38;56.15
53011;BME280;42803;55.762;38.084;2024-03-17T10:04:32;99592.53;;;9.15;56.29
53011;BME280;42803;55.762;38.084;2024-03-17T10:07:01;99594.44;;;9.38;56.26
53011;BME280;42803;55.762;38.084;2024-03-17T10:09:30;99592.38;;;9.34;55.83
53011;BME280;42803;55.762;38.084;2024-03-17T10:11:59;99585.28;;;9.53;55.56
53011;BME280;42803;55.762;38.084;2024-03-17T10:14:26;99591.94;;;9.50;55.70
53011;BME280;42803;55.762;38.084;2024-03-17T10:16:54;99583.72;;;9.66;55.80
53011;BME280;42803;55.762;38.084;2024-03-17T10:19:24;99574.28;;;9.78;55.61
53011;BME280;42803;55.762;38.084;2024-03-17T10:22:00;99578.28;;;9.85;55.67
53011;BME280;42803;55.762;38.084;2024-03-17T10:24:29;99573.91;;;9.95;55.49
53011;BME280;42803;55.762;38.084;2024-03-17T10:27:01;99573.88;;;10.06;55.30
53011;BME280;42803;55.762;38.084;2024-03-17T10:29:33;99569.09;;;9.68;55.95
53011;BME280;42803;55.762;38.084;2024-03-17T10:32:04;99566.03;;;9.41;56.38
53011;BME280;42803;55.762;38.084;2024-03-17T10:34:32;99570.78;;;9.25;57.53
53011;BME280;42803;55.762;38.084;2024-03-17T10:39:42;99563.53;;;9.00;58.10
53011;BME280;42803;55.762;38.084;2024-03-17T10:42:24;99567.84;;;8.90;57.99
53011;BME280;42803;55.762;38.084;2024-03-17T10:44:55;99561.56;;;8.98;58.45
53011;BME280;42803;55.762;38.084;2024-03-17T10:47:25;99557.50;;;9.22;57.71
53011;BME280;42803;55.762;38.084;2024-03-17T10:49:55;99566.56;;;9.37;57.14
53011;BME280;42803;55.762;38.084;2024-03-17T10:52:23;99560.63;;;9.28;57.70
53011;BME280;42803;55.762;38.084;2024-03-17T10:54:53;99564.22;;;9.40;57.06
53011;BME280;42803;55.762;38.084;2024-03-17T11:00:04;99562.66;;;9.42;56.40
53011;BME280;42803;55.762;38.084;2024-03-17T11:02:36;99566.56;;;9.37;56.41
53011;BME280;42803;55.762;38.084;2024-03-17T11:05:07;99562.88;;;9.56;56.16
53011;BME280;42803;55.762;38.084;2024-03-17T11:07:39;99559.81;;;9.39;55.75
53011;BME280;42803;55.762;38.084;2024-03-17T11:12:54;99558.81;;;9.07;55.55
53011;BME280;42803;55.762;38.084;2024-03-17T11:23:35;99556.22;;;9.17;55.77
53011;BME280;42803;55.762;38.084;2024-03-17T11:26:04;99554.03;;;8.81;56.16
53011;BME280;42803;55.762;38.084;2024-03-17T11:31:33;99550.97;;;8.35;56.98
53011;BME280;42803;55.762;38.084;2024-03-17T11:34:03;99552.25;;;8.20;57.74
53011;BME280;42803;55.762;38.084;2024-03-17T11:36:38;99538.16;;;7.97;58.47
53011;BME280;42803;55.762;38.084;2024-03-17T11:39:09;99542.50;;;8.17;58.82
53011;BME280;42803;55.762;38.084;2024-03-17T11:41:45;99535.03;;;8.61;57.92
53011;BME280;42803;55.762;38.084;2024-03-17T11:46:58;99535.81;;;8.81;58.43
53011;BME280;42803;55.762;38.084;2024-03-17T11:49:43;99533.88;;;8.47;58.18
53011;BME280;42803;55.762;38.084;2024-03-17T11:52:14;99537.84;;;8.34;58.88
53011;BME280;42803;55.762;38.084;2024-03-17T11:54:43;99531.72;;;8.23;58.73
53011;BME280;42803;55.762;38.084;2024-03-17T11:57:14;99533.75;;;7.86;58.74
53011;BME280;42803;55.762;38.084;2024-03-17T11:59:44;99529.75;;;7.61;59.42
53011;BME280;42803;55.762;38.084;2024-03-17T12:02:23;99537.47;;;7.50;59.80
53011;BME280;42803;55.762;38.084;2024-03-17T12:05:01;99537.75;;;7.93;59.09
53011;BME280;42803;55.762;38.084;2024-03-17T12:07:31;99534.22;;;7.82;59.03
53011;BME280;42803;55.762;38.084;2024-03-17T12:09:58;99528.44;;;7.66;59.71
53011;BME280;42803;55.762;38.084;2024-03-17T12:12:27;99528.16;;;7.52;60.32
53011;BME280;42803;55.762;38.084;2024-03-17T12:15:03;99527.34;;;7.24;60.84
53011;BME280;42803;55.762;38.084;2024-03-17T12:21:14;99529.63;;;7.40;61.24
53011;BME280;42803;55.762;38.084;2024-03-17T12:23:42;99520.31;;;7.71;60.24
53011;BME280;42803;55.762;38.084;2024-03-17T12:26:15;99527.03;;;7.69;60.18
53011;BME280;42803;55.762;38.084;2024-03-17T12:28:46;99517.63;;;7.90;59.96
53011;BME280;42803;55.762;38.084;2024-03-17T12:31:13;99526.25;;;8.10;59.06
53011;BME280;42803;55.762;38.084;2024-03-17T12:33:41;99526.13;;;8.18;58.76
53011;BME280;42803;55.762;38.084;2024-03-17T12:36:11;99518.44;;;8.10;59.01
53011;BME280;42803;55.762;38.084;2024-03-17T12:38:40;99521.06;;;8.30;58.59
53011;BME280;42803;55.762;38.084;2024-03-17T12:41:16;99517.19;;;8.25;58.62
53011;BME280;42803;55.762;38.084;2024-03-17T12:43:50;99514.81;;;8.18;58.80
53011;BME280;42803;55.762;38.084;2024-03-17T12:46:19;99520.81;;;8.17;59.42
53011;BME280;42803;55.762;38.084;2024-03-17T12:48:47;99510.50;;;8.08;59.06
53011;BME280;42803;55.762;38.084;2024-03-17T12:51:14;99518.69;;;8.02;59.84
53011;BME280;42803;55.762;38.084;2024-03-17T12:53:42;99514.41;;;8.03;59.79
53011;BME280;42803;55.762;38.084;2024-03-17T12:56:09;99517.09;;;7.84;59.97
53011;BME280;42803;55.762;38.084;2024-03-17T12:58:54;99509.72;;;7.99;60.58
53011;BME280;42803;55.762;38.084;2024-03-17T13:01:39;99510.03;;;7.73;59.95
53011;BME280;42803;55.762;38.084;2024-03-17T13:04:07;99506.81;;;7.75;60.87
53011;BME280;42803;55.762;38.084;2024-03-17T13:06:36;99503.03;;;7.82;60.62
53011;BME280;42803;55.762;38.084;2024-03-17T13:09:03;99506.28;;;7.79;61.06
53011;BME280;42803;55.762;38.084;2024-03-17T13:11:31;99498.91;;;7.84;60.98
53011;BME280;42803;55.762;38.084;2024-03-17T13:13:59;99499.06;;;7.56;61.04
53011;BME280;42803;55.762;38.084;2024-03-17T13:16:27;99499.69;;;7.54;60.89
53011;BME280;42803;55.762;38.084;2024-03-17T13:18:56;99498.75;;;7.43;61.20
53011;BME280;42803;55.762;38.084;2024-03-17T13:21:24;99494.28;;;7.32;62.74
53011;BME280;42803;55.762;38.084;2024-03-17T13:23:52;99486.69;;;7.15;62.28
53011;BME280;42803;55.762;38.084;2024-03-17T13:26:20;99493.88;;;6.98;62.34
53011;BME280;42803;55.762;38.084;2024-03-17T13:28:50;99497.38;;;6.80;62.91
53011;BME280;42803;55.762;38.084;2024-03-17T13:31:18;99495.19;;;6.66;63.54
53011;BME280;42803;55.762;38.084;2024-03-17T13:33:46;99494.56;;;6.49;64.40